This is the latest recevied weather packets stored in our database for station/object EA1IRT-1. If no packets are shown the sender has not sent any weather packets the latest 10 day(s).
| Time | Temp. | Humidity | Pressure | Rain* | Wind** | Luminosity | Snow |
|---|---|---|---|---|---|---|---|
| 1777902451 | 16.11° C | 77% | 1015.1 hPa | - | - | - | - |
| 1777901551 | 16.11° C | 80% | 1015.1 hPa | - | - | - | - |
| 1777900651 | 15.56° C | 82% | 1015 hPa | - | - | - | - |
| 1777899751 | 15° C | 82% | 1015.1 hPa | - | - | - | - |
| 1777898851 | 15.56° C | 81% | 1014.7 hPa | - | - | - | - |
| 1777897951 | 15° C | 82% | 1015 hPa | - | - | - | - |
| 1777897050 | 14.44° C | 81% | 1015.2 hPa | - | - | - | - |
| 1777896150 | 16.11° C | 72% | 1015.3 hPa | - | - | - | - |
| 1777895250 | 17.22° C | 77% | 1014.9 hPa | - | - | - | - |
| 1777894350 | 16.11° C | 80% | 1015.2 hPa | - | - | - | - |
| 1777893450 | 16.67° C | 72% | 1015.3 hPa | - | - | - | - |
| 1777892550 | 17.22° C | 75% | 1015.3 hPa | - | - | - | - |
| 1777891650 | 15° C | 82% | 1015.6 hPa | - | - | - | - |
| 1777890750 | 15° C | 84% | 1015.8 hPa | - | - | - | - |
| 1777889850 | 15° C | 81% | 1015.9 hPa | - | - | - | - |
| 1777888950 | 15.56° C | 70% | 1015.4 hPa | - | - | - | - |
| 1777888025 | 17.22° C | 68% | 1015.2 hPa | - | - | - | - |
| 1777887102 | 18.33° C | 59% | 1015.3 hPa | - | - | - | - |
| 1777886201 | 19.44° C | 60% | 1015.3 hPa | - | - | - | - |
| 1777885300 | 17.78° C | 67% | 1015.3 hPa | - | - | - | - |
| 1777884403 | 16.67° C | 75% | 1015.5 hPa | - | - | - | - |
| 1777883500 | 15.56° C | 75% | 1015.4 hPa | - | - | - | - |
| 1777882600 | 15° C | 75% | 1015.3 hPa | - | - | - | - |
| 1777881700 | 14.44° C | 77% | 1015.1 hPa | - | - | - | - |
| 1777880800 | 15° C | 79% | 1015 hPa | - | - | - | - |
* Rain since midnight (hover to see other rain measurements)
** Current wind speed in m/s (hover to see current wind gust speed)